createdAt,value
2018-06-15T00:00:09.660Z,17.50
2018-06-15T00:02:38.910Z,17.00
2018-06-15T00:05:08.087Z,17.97
2018-06-15T00:07:37.279Z,15.80
2018-06-15T00:10:06.483Z,15.37
2018-06-15T00:12:35.674Z,14.90
2018-06-15T00:15:22.411Z,15.20
2018-06-15T00:17:54.180Z,16.00
2018-06-15T00:20:23.375Z,17.03
2018-06-15T00:22:52.595Z,15.07
2018-06-15T00:25:21.880Z,16.43
2018-06-15T00:27:51.140Z,16.13
2018-06-15T00:30:20.423Z,15.40
2018-06-15T00:32:49.606Z,15.23
2018-06-15T00:35:18.777Z,17.70
2018-06-15T00:37:47.975Z,16.07
2018-06-15T00:40:17.200Z,18.57
2018-06-15T00:42:46.505Z,17.97
2018-06-15T00:45:15.725Z,20.27
2018-06-15T00:47:45.368Z,21.67
2018-06-15T00:50:14.564Z,17.03
2018-06-15T00:52:44.076Z,17.07
2018-06-15T00:55:13.241Z,17.10
2018-06-15T00:57:46.570Z,20.47
2018-06-15T01:00:16.245Z,20.40
2018-06-15T01:02:45.409Z,19.57
2018-06-15T01:05:14.695Z,18.53
2018-06-15T01:07:43.866Z,18.03
2018-06-15T01:10:12.988Z,18.33
2018-06-15T01:12:42.146Z,21.70
2018-06-15T01:15:11.301Z,18.23
2018-06-15T01:17:40.510Z,16.83
2018-06-15T01:20:09.703Z,17.03
2018-06-15T01:22:38.861Z,20.93
2018-06-15T01:25:07.981Z,17.90
2018-06-15T01:27:37.191Z,21.57
2018-06-15T01:30:07.016Z,17.83
2018-06-15T01:32:36.210Z,20.13
2018-06-15T01:35:05.361Z,18.67
2018-06-15T01:37:34.810Z,16.67
2018-06-15T01:40:04.262Z,18.07
2018-06-15T01:42:33.463Z,17.67
2018-06-15T01:45:02.628Z,18.10
2018-06-15T01:47:31.792Z,18.13
2018-06-15T01:50:00.921Z,16.97
2018-06-15T01:52:30.252Z,18.83
2018-06-15T01:54:59.370Z,18.03
2018-06-15T01:57:28.554Z,20.17
2018-06-15T01:59:58.058Z,17.83
2018-06-15T02:02:27.244Z,17.77
2018-06-15T02:04:56.443Z,18.60
2018-06-15T02:07:25.592Z,18.37
2018-06-15T02:09:54.878Z,21.63
2018-06-15T02:12:24.174Z,17.77
2018-06-15T02:14:54.011Z,19.83
2018-06-15T02:17:23.205Z,19.70
2018-06-15T02:19:52.397Z,16.90
2018-06-15T02:22:21.586Z,17.70
2018-06-15T02:24:50.786Z,18.77
2018-06-15T02:27:19.941Z,19.27
2018-06-15T02:29:49.183Z,18.73
2018-06-15T02:32:18.351Z,18.77
2018-06-15T02:34:47.465Z,21.10
2018-06-15T02:37:16.633Z,20.57
2018-06-15T02:39:45.792Z,20.10
2018-06-15T02:42:14.999Z,20.43
2018-06-15T02:44:44.138Z,20.20
2018-06-15T02:47:13.316Z,21.53
2018-06-15T02:49:59.163Z,22.10
2018-06-15T02:52:30.994Z,20.20
2018-06-15T02:55:00.204Z,21.00
2018-06-15T02:57:29.449Z,22.63
2018-06-15T02:59:58.615Z,20.80
2018-06-15T03:02:28.105Z,21.77
2018-06-15T03:04:57.261Z,22.37
2018-06-15T03:07:26.482Z,22.77
2018-06-15T03:09:55.690Z,21.97
2018-06-15T03:12:24.898Z,22.93
2018-06-15T03:14:54.076Z,21.50
2018-06-15T03:17:23.197Z,22.97
2018-06-15T03:19:52.376Z,21.80
2018-06-15T03:22:21.441Z,21.67
2018-06-15T03:24:50.591Z,22.47
2018-06-15T03:27:19.697Z,26.03
2018-06-15T03:29:48.874Z,22.30
2018-06-15T03:32:18.055Z,25.53
2018-06-15T03:34:47.208Z,25.70
2018-06-15T03:37:16.358Z,24.90
2018-06-15T03:39:45.490Z,24.37
2018-06-15T03:42:14.653Z,23.50
2018-06-15T03:44:43.843Z,27.07
2018-06-15T03:47:13.437Z,25.97
2018-06-15T03:49:42.632Z,25.67
2018-06-15T03:52:11.787Z,24.47
2018-06-15T03:54:41.044Z,34.27
2018-06-15T03:57:10.246Z,31.57
2018-06-15T03:59:39.466Z,32.93
2018-06-15T04:02:08.633Z,31.47
2018-06-15T04:04:37.790Z,35.57
2018-06-15T04:07:06.970Z,31.27
2018-06-15T04:09:36.123Z,28.37
2018-06-15T04:12:05.319Z,30.97
2018-06-15T04:14:34.491Z,27.20
2018-06-15T04:17:03.662Z,30.73
2018-06-15T04:19:32.834Z,43.20
2018-06-15T04:22:02.008Z,43.30
2018-06-15T04:24:31.167Z,43.43
2018-06-15T04:27:00.349Z,44.70
2018-06-15T04:29:29.489Z,42.93
2018-06-15T04:31:59.672Z,45.50
2018-06-15T04:34:28.799Z,42.60
2018-06-15T04:36:57.984Z,36.93
2018-06-15T04:39:27.136Z,32.90
2018-06-15T04:41:56.259Z,38.40
2018-06-15T04:44:25.440Z,36.13
2018-06-15T04:46:54.585Z,40.10
2018-06-15T04:49:23.803Z,36.10
2018-06-15T04:51:52.988Z,41.07
2018-06-15T04:54:22.227Z,40.87
2018-06-15T04:56:51.613Z,38.33
2018-06-15T04:59:21.000Z,41.00
2018-06-15T05:01:50.155Z,40.30
2018-06-15T05:04:19.851Z,39.47
2018-06-15T05:06:49.033Z,27.53
2018-06-15T05:09:20.153Z,27.10
2018-06-15T05:11:49.638Z,26.90
2018-06-15T05:14:18.812Z,27.37
2018-06-15T05:16:48.083Z,34.70
2018-06-15T05:19:17.293Z,41.93
2018-06-15T05:21:46.483Z,40.30
2018-06-15T05:24:15.923Z,43.87
2018-06-15T05:26:45.109Z,43.53
2018-06-15T05:29:14.321Z,35.43
2018-06-15T05:31:43.486Z,30.30
2018-06-15T05:34:12.624Z,32.00
2018-06-15T05:36:41.874Z,29.73
2018-06-15T05:39:11.889Z,30.27
2018-06-15T05:41:41.084Z,31.03
2018-06-15T05:44:10.248Z,34.33
2018-06-15T05:46:39.440Z,31.33
2018-06-15T05:49:08.679Z,30.60
2018-06-15T05:51:37.894Z,27.53
2018-06-15T05:54:07.124Z,39.83
2018-06-15T05:56:36.318Z,31.27
2018-06-15T05:59:05.599Z,28.93
2018-06-15T06:01:34.782Z,32.53
2018-06-15T06:04:04.114Z,28.23
2018-06-15T06:06:33.252Z,29.70
2018-06-15T06:09:02.423Z,27.60
2018-06-15T06:11:31.645Z,28.17
2018-06-15T06:14:00.810Z,27.13
2018-06-15T06:16:30.038Z,30.53
2018-06-15T06:18:59.240Z,27.90
2018-06-15T06:21:28.452Z,28.83
2018-06-15T06:23:57.912Z,30.33
2018-06-15T06:26:27.472Z,29.33
2018-06-15T06:28:56.642Z,30.27
2018-06-15T06:31:25.818Z,32.67
2018-06-15T06:33:55.041Z,28.30
2018-06-15T06:36:24.232Z,32.97
2018-06-15T06:38:53.404Z,28.03
2018-06-15T06:41:22.644Z,30.37
2018-06-15T06:43:51.839Z,28.80
2018-06-15T06:46:20.968Z,27.70
2018-06-15T06:48:50.224Z,25.23
2018-06-15T06:51:19.432Z,28.03
2018-06-15T06:53:48.625Z,26.60
2018-06-15T06:56:17.818Z,24.30
2018-06-15T06:58:47.118Z,28.30
2018-06-15T07:01:16.311Z,28.77
2018-06-15T07:03:45.526Z,30.63
2018-06-15T07:06:14.706Z,27.60
2018-06-15T07:08:44.283Z,26.13
2018-06-15T07:11:13.686Z,32.27
2018-06-15T07:13:42.930Z,27.40
2018-06-15T07:16:12.093Z,25.97
2018-06-15T07:18:41.716Z,26.90
2018-06-15T07:21:10.907Z,27.23
2018-06-15T07:23:40.231Z,27.67
2018-06-15T07:26:09.435Z,28.07
2018-06-15T07:28:38.668Z,26.80
2018-06-15T07:31:07.890Z,25.33
2018-06-15T07:33:37.341Z,24.87
2018-06-15T07:36:06.520Z,28.40
2018-06-15T07:38:35.768Z,28.30
2018-06-15T07:41:04.979Z,22.77
2018-06-15T07:43:34.182Z,18.67
2018-06-15T07:46:03.535Z,17.47
2018-06-15T07:48:32.693Z,20.43
2018-06-15T07:51:01.871Z,20.00
2018-06-15T07:53:31.189Z,20.87
2018-06-15T07:56:00.480Z,22.23
2018-06-15T07:58:29.657Z,24.77
2018-06-15T08:00:58.986Z,20.07
2018-06-15T08:03:28.265Z,16.70
2018-06-15T08:05:57.448Z,20.60
2018-06-15T08:08:26.683Z,19.30
2018-06-15T08:10:56.004Z,18.97
2018-06-15T08:13:25.184Z,18.07
2018-06-15T08:15:54.478Z,19.47
2018-06-15T08:18:23.699Z,16.57
2018-06-15T08:20:54.007Z,18.93
2018-06-15T08:23:23.196Z,16.07
2018-06-15T08:25:52.426Z,13.67
2018-06-15T08:28:21.667Z,13.53
2018-06-15T08:30:50.890Z,14.03
2018-06-15T08:33:20.046Z,14.17
2018-06-15T08:35:49.552Z,14.77
2018-06-15T08:38:18.888Z,15.10
2018-06-15T08:40:48.162Z,14.80
2018-06-15T08:43:17.494Z,13.90
2018-06-15T08:45:46.701Z,10.90
2018-06-15T08:48:15.957Z,10.37
2018-06-15T08:50:45.302Z,10.63
2018-06-15T08:53:14.862Z,10.43
2018-06-15T08:55:44.348Z,10.07
2018-06-15T08:58:13.698Z,7.87
2018-06-15T09:00:42.945Z,9.43
2018-06-15T09:03:13.204Z,8.77
2018-06-15T09:05:42.635Z,7.77
2018-06-15T09:08:12.104Z,7.63
2018-06-15T09:10:41.475Z,7.53
2018-06-15T09:13:10.781Z,7.30
2018-06-15T09:15:40.155Z,7.00
2018-06-15T09:18:09.505Z,6.43
2018-06-15T09:20:38.860Z,6.73
2018-06-15T09:23:08.111Z,5.30
2018-06-15T09:25:37.503Z,4.30
2018-06-15T09:28:06.914Z,5.20
2018-06-15T09:30:36.217Z,5.47
2018-06-15T09:33:05.471Z,7.60
2018-06-15T09:35:34.710Z,9.60
2018-06-15T09:38:04.054Z,6.50
2018-06-15T09:40:33.408Z,9.33
2018-06-15T09:43:02.633Z,7.77
2018-06-15T09:45:32.049Z,9.17
2018-06-15T09:48:01.418Z,8.00
2018-06-15T09:50:30.742Z,8.47
2018-06-15T09:53:00.017Z,6.50
2018-06-15T09:55:29.314Z,5.50
2018-06-15T09:57:58.643Z,6.87
2018-06-15T10:00:33.174Z,8.87
2018-06-15T10:03:02.470Z,8.00
2018-06-15T10:05:31.919Z,9.13
2018-06-15T10:08:01.168Z,7.73
2018-06-15T10:10:30.473Z,7.67
2018-06-15T10:12:59.874Z,7.10
2018-06-15T10:15:29.255Z,6.63
2018-06-15T10:17:58.572Z,5.97
2018-06-15T10:20:29.034Z,7.30
2018-06-15T10:22:58.308Z,7.20
2018-06-15T10:25:27.522Z,7.93
2018-06-15T10:27:56.760Z,8.00
2018-06-15T10:30:26.183Z,6.87
2018-06-15T10:32:55.562Z,6.67
2018-06-15T10:35:24.859Z,6.93
2018-06-15T10:37:54.329Z,6.63
2018-06-15T10:40:23.665Z,7.20
2018-06-15T10:42:53.103Z,7.03
2018-06-15T10:45:23.276Z,7.03
2018-06-15T10:47:52.746Z,7.53
2018-06-15T10:50:22.136Z,8.50
2018-06-15T10:52:51.362Z,7.37
2018-06-15T10:55:20.822Z,7.33
2018-06-15T10:57:50.021Z,6.87
2018-06-15T11:00:19.372Z,5.97
2018-06-15T11:02:48.716Z,6.80
2018-06-15T11:05:18.074Z,7.77
2018-06-15T11:07:47.344Z,7.37
2018-06-15T11:10:16.582Z,7.93
2018-06-15T11:12:45.878Z,9.57
2018-06-15T11:15:15.099Z,8.70
2018-06-15T11:17:44.418Z,7.33
2018-06-15T11:20:13.612Z,7.27
2018-06-15T11:22:42.942Z,8.50
2018-06-15T11:25:12.235Z,7.43
2018-06-15T11:27:41.480Z,9.47
2018-06-15T11:30:10.799Z,7.43
2018-06-15T11:32:40.031Z,8.00
2018-06-15T11:35:09.302Z,8.40
2018-06-15T11:37:38.484Z,6.60
2018-06-15T11:40:07.641Z,7.77
2018-06-15T11:42:36.860Z,8.13
2018-06-15T11:45:06.130Z,5.63
2018-06-15T11:47:35.512Z,5.67
2018-06-15T11:50:04.955Z,8.27
2018-06-15T11:52:34.069Z,6.00
2018-06-15T11:55:03.379Z,6.90
2018-06-15T11:57:32.642Z,7.37
2018-06-15T12:00:01.832Z,5.77
2018-06-15T12:02:31.003Z,5.53
2018-06-15T12:05:00.310Z,4.77
2018-06-15T12:07:29.793Z,5.20
2018-06-15T12:09:58.997Z,5.33
2018-06-15T12:12:28.259Z,7.53
2018-06-15T12:14:57.392Z,4.80
2018-06-15T12:17:26.629Z,4.55
2018-06-15T12:19:55.992Z,5.25
2018-06-15T12:22:25.336Z,5.25
2018-06-15T12:24:54.576Z,4.20
2018-06-15T12:27:23.770Z,4.67
2018-06-15T12:29:53.048Z,6.50
2018-06-15T12:32:22.369Z,6.97
2018-06-15T12:34:51.630Z,5.80
2018-06-15T12:37:20.838Z,5.42
2018-06-15T12:39:50.675Z,4.17
2018-06-15T12:42:19.931Z,5.65
2018-06-15T12:44:49.186Z,5.20
2018-06-15T12:47:18.541Z,4.95
2018-06-15T12:49:47.826Z,6.53
2018-06-15T12:52:17.041Z,6.05
2018-06-15T12:54:46.645Z,8.60
2018-06-15T12:57:15.955Z,5.25
2018-06-15T12:59:45.136Z,6.50
2018-06-15T13:02:14.433Z,5.33
2018-06-15T13:04:43.634Z,6.55
2018-06-15T13:07:12.876Z,6.22
2018-06-15T13:09:42.060Z,5.22
2018-06-15T13:12:12.070Z,5.30
2018-06-15T13:14:41.318Z,5.65
2018-06-15T13:17:10.556Z,4.92
2018-06-15T13:19:39.851Z,3.75
2018-06-15T13:22:09.495Z,4.72
2018-06-15T13:24:38.706Z,5.08
2018-06-15T13:27:08.061Z,6.20
2018-06-15T13:29:37.384Z,4.33
2018-06-15T13:32:06.769Z,4.75
2018-06-15T13:34:35.971Z,3.85
2018-06-15T13:37:05.478Z,5.62
2018-06-15T13:39:34.858Z,4.17
2018-06-15T13:42:04.250Z,4.30
2018-06-15T13:44:33.642Z,6.70
2018-06-15T13:47:03.278Z,4.37
2018-06-15T13:49:32.413Z,5.92
2018-06-15T13:52:01.767Z,4.30
2018-06-15T13:54:30.973Z,4.42
2018-06-15T13:57:00.169Z,4.35
2018-06-15T13:59:29.300Z,6.28
2018-06-15T14:01:58.428Z,3.42
2018-06-15T14:04:28.163Z,3.85
2018-06-15T14:06:57.484Z,3.77
2018-06-15T14:09:26.618Z,3.60
2018-06-15T14:11:55.861Z,6.95
2018-06-15T14:14:25.100Z,4.05
2018-06-15T14:16:54.412Z,3.33
2018-06-15T14:19:23.704Z,4.08
2018-06-15T14:21:53.199Z,3.25
2018-06-15T14:24:22.915Z,5.03
2018-06-15T14:26:52.221Z,2.80
2018-06-15T14:29:21.450Z,5.25
2018-06-15T14:31:50.715Z,5.72
2018-06-15T14:34:19.943Z,5.25
2018-06-15T14:36:49.108Z,6.20
2018-06-15T14:39:18.349Z,4.30
2018-06-15T14:41:47.554Z,3.47
2018-06-15T14:44:16.802Z,4.25
2018-06-15T14:46:46.005Z,7.42
2018-06-15T14:49:15.201Z,3.12
2018-06-15T14:51:44.346Z,2.95
2018-06-15T14:54:13.592Z,4.00
2018-06-15T14:56:43.162Z,5.28
2018-06-15T14:59:12.286Z,6.15
2018-06-15T15:01:41.573Z,5.17
2018-06-15T15:04:10.792Z,5.72
2018-06-15T15:06:39.988Z,3.98
2018-06-15T15:09:09.671Z,4.37
2018-06-15T15:11:38.867Z,4.65
2018-06-15T15:14:08.112Z,3.42
2018-06-15T15:16:37.509Z,6.17
2018-06-15T15:19:06.850Z,5.83
2018-06-15T15:21:36.156Z,5.42
2018-06-15T15:24:05.501Z,4.45
2018-06-15T15:26:34.800Z,4.10
2018-06-15T15:29:04.980Z,4.83
2018-06-15T15:31:34.903Z,6.28
2018-06-15T15:34:04.140Z,6.87
2018-06-15T15:36:33.387Z,3.60
2018-06-15T15:39:02.688Z,4.30
2018-06-15T15:41:31.913Z,5.70
2018-06-15T15:44:01.207Z,6.10
2018-06-15T15:46:30.435Z,5.05
2018-06-15T15:48:59.657Z,5.65
2018-06-15T15:51:28.926Z,7.83
2018-06-15T15:53:58.348Z,5.45
2018-06-15T15:56:27.623Z,3.35
2018-06-15T15:58:57.204Z,3.45
2018-06-15T16:01:26.598Z,6.78
2018-06-15T16:03:55.729Z,5.22
2018-06-15T16:06:25.737Z,4.53
2018-06-15T16:08:55.007Z,5.92
2018-06-15T16:11:24.242Z,5.22
2018-06-15T16:13:53.562Z,4.12
2018-06-15T16:16:22.778Z,4.37
2018-06-15T16:18:51.923Z,5.37
2018-06-15T16:21:21.686Z,5.47
2018-06-15T16:23:50.933Z,5.83
2018-06-15T16:26:20.111Z,6.33
2018-06-15T16:28:49.340Z,3.97
2018-06-15T16:31:18.568Z,4.60
2018-06-15T16:33:47.823Z,5.80
2018-06-15T16:36:17.126Z,6.53
2018-06-15T16:38:46.332Z,4.70
2018-06-15T16:41:15.529Z,4.63
2018-06-15T16:43:44.930Z,6.17
2018-06-15T16:46:14.253Z,3.90
2018-06-15T16:48:43.444Z,6.37
2018-06-15T16:51:12.672Z,6.05
2018-06-15T16:53:41.846Z,5.37
2018-06-15T16:56:11.546Z,7.23
2018-06-15T16:58:40.813Z,6.23
2018-06-15T17:01:09.999Z,7.60
2018-06-15T17:03:39.198Z,7.20
2018-06-15T17:06:08.363Z,5.33
2018-06-15T17:08:37.702Z,4.70
2018-06-15T17:11:06.861Z,5.80
2018-06-15T17:13:36.035Z,7.07
2018-06-15T17:16:05.622Z,6.97
2018-06-15T17:18:34.941Z,7.53
2018-06-15T17:21:04.140Z,6.63
2018-06-15T17:23:33.256Z,7.50
2018-06-15T17:26:02.722Z,6.67
2018-06-15T17:28:31.914Z,8.03
2018-06-15T17:31:01.152Z,7.53
2018-06-15T17:33:30.311Z,8.27
2018-06-15T17:35:59.513Z,5.97
2018-06-15T17:38:28.657Z,10.90
2018-06-15T17:40:58.003Z,5.93
2018-06-15T17:43:27.224Z,8.00
2018-06-15T17:45:56.418Z,5.03
2018-06-15T17:48:25.577Z,8.53
2018-06-15T17:50:54.811Z,5.67
2018-06-15T17:53:23.991Z,6.33
2018-06-15T17:55:53.320Z,6.13
2018-06-15T17:58:22.507Z,7.40
2018-06-15T18:00:51.794Z,12.00
2018-06-15T18:03:21.149Z,8.13
2018-06-15T18:05:50.419Z,5.97
2018-06-15T18:08:19.591Z,5.97
2018-06-15T18:10:48.750Z,7.27
2018-06-15T18:13:18.043Z,7.63
2018-06-15T18:15:47.260Z,8.90
2018-06-15T18:18:16.402Z,6.87
2018-06-15T18:20:45.555Z,5.10
2018-06-15T18:23:14.852Z,5.90
2018-06-15T18:25:44.044Z,6.73
2018-06-15T18:28:13.225Z,6.57
2018-06-15T18:30:42.371Z,6.30
2018-06-15T18:33:11.582Z,8.43
2018-06-15T18:35:40.755Z,8.90
2018-06-15T18:38:09.858Z,7.20
2018-06-15T18:40:39.098Z,10.23
2018-06-15T18:43:08.370Z,5.80
2018-06-15T18:45:37.516Z,5.37
2018-06-15T18:48:06.837Z,7.83
2018-06-15T18:50:36.021Z,6.67
2018-06-15T18:53:05.263Z,7.20
2018-06-15T18:55:35.065Z,8.10
2018-06-15T18:58:07.267Z,7.37
2018-06-15T19:00:36.427Z,7.73
2018-06-15T19:03:06.001Z,7.17
2018-06-15T19:05:35.170Z,5.30
2018-06-15T19:08:04.450Z,8.70
2018-06-15T19:10:33.674Z,5.53
2018-06-15T19:13:02.907Z,11.20
2018-06-15T19:15:32.176Z,8.17
2018-06-15T19:18:01.435Z,5.87
2018-06-15T19:20:30.681Z,6.90
2018-06-15T19:22:59.923Z,8.63
2018-06-15T19:25:29.048Z,5.47
2018-06-15T19:27:58.201Z,6.97
2018-06-15T19:30:27.429Z,8.00
2018-06-15T19:32:56.612Z,5.73
2018-06-15T19:35:25.817Z,8.43
2018-06-15T19:37:55.030Z,6.67
2018-06-15T19:40:24.251Z,5.97
2018-06-15T19:42:53.497Z,4.47
2018-06-15T19:45:22.790Z,5.60
2018-06-15T19:47:52.021Z,5.80
2018-06-15T19:50:21.230Z,8.63
2018-06-15T19:52:50.423Z,7.13
2018-06-15T19:55:19.600Z,10.07
2018-06-15T19:57:48.811Z,10.83
2018-06-15T20:00:18.136Z,6.93
2018-06-15T20:02:47.522Z,7.33
2018-06-15T20:05:16.746Z,9.10
2018-06-15T20:07:45.930Z,7.30
2018-06-15T20:10:15.239Z,7.80
2018-06-15T20:12:44.551Z,7.00
2018-06-15T20:15:13.756Z,6.90
2018-06-15T20:17:42.929Z,9.23
2018-06-15T20:20:12.142Z,8.43
2018-06-15T20:22:41.296Z,7.83
2018-06-15T20:25:10.449Z,8.00
2018-06-15T20:27:39.797Z,6.93
2018-06-15T20:30:09.467Z,8.93
2018-06-15T20:32:38.646Z,8.47
2018-06-15T20:35:07.872Z,9.93
2018-06-15T20:37:37.040Z,9.23
2018-06-15T20:40:06.231Z,11.73
2018-06-15T20:42:35.336Z,12.13
2018-06-15T20:45:04.591Z,5.93
2018-06-15T20:47:33.736Z,8.53
2018-06-15T20:50:03.109Z,8.37
2018-06-15T20:52:32.355Z,10.67
2018-06-15T20:55:01.554Z,8.30
2018-06-15T20:57:30.757Z,10.70
2018-06-15T20:59:59.982Z,7.63
2018-06-15T21:02:29.142Z,12.03
2018-06-15T21:04:58.363Z,9.60
2018-06-15T21:07:27.619Z,13.73
2018-06-15T21:09:56.834Z,12.43
2018-06-15T21:12:26.016Z,10.77
2018-06-15T21:14:55.176Z,15.23
2018-06-15T21:17:24.352Z,12.43
2018-06-15T21:19:53.552Z,9.17
2018-06-15T21:22:22.785Z,11.43
2018-06-15T21:24:52.003Z,14.63
2018-06-15T21:27:21.145Z,11.03
2018-06-15T21:29:57.002Z,10.80
2018-06-15T21:32:26.125Z,13.63
2018-06-15T21:34:55.269Z,13.73
2018-06-15T21:37:24.549Z,9.87
2018-06-15T21:39:53.733Z,11.63
2018-06-15T21:42:22.891Z,10.47
2018-06-15T21:44:52.084Z,11.53
2018-06-15T21:47:21.232Z,12.33
2018-06-15T21:49:50.399Z,14.57
2018-06-15T21:52:19.663Z,11.13
2018-06-15T21:54:48.811Z,14.20
2018-06-15T21:57:17.979Z,15.37
2018-06-15T21:59:47.232Z,13.17
2018-06-15T22:02:16.544Z,10.83
2018-06-15T22:04:45.710Z,10.93
2018-06-15T22:07:14.869Z,10.17
2018-06-15T22:09:44.080Z,9.90
2018-06-15T22:12:13.231Z,10.63
2018-06-15T22:14:42.641Z,9.63
2018-06-15T22:17:11.847Z,11.63
2018-06-15T22:19:41.053Z,9.17
2018-06-15T22:22:10.225Z,9.47
2018-06-15T22:24:39.391Z,12.87
2018-06-15T22:27:08.594Z,10.63
2018-06-15T22:29:37.815Z,8.77
2018-06-15T22:32:06.995Z,12.40
2018-06-15T22:34:36.232Z,13.33
2018-06-15T22:37:05.404Z,10.23
2018-06-15T22:39:34.577Z,9.90
2018-06-15T22:42:04.017Z,9.67
2018-06-15T22:44:33.288Z,12.50
2018-06-15T22:47:02.454Z,15.13
2018-06-15T22:49:31.576Z,11.77
2018-06-15T22:52:00.783Z,11.77
2018-06-15T22:54:30.018Z,8.30
2018-06-15T22:56:59.281Z,10.60
2018-06-15T22:59:28.428Z,8.63
2018-06-15T23:01:57.671Z,7.97
2018-06-15T23:04:26.905Z,13.57
2018-06-15T23:06:56.222Z,11.33
2018-06-15T23:09:25.454Z,9.83
2018-06-15T23:11:54.647Z,11.93
2018-06-15T23:14:23.918Z,10.83
2018-06-15T23:16:53.120Z,12.03
2018-06-15T23:19:22.304Z,14.53
2018-06-15T23:21:51.539Z,16.30
2018-06-15T23:24:20.833Z,10.23
2018-06-15T23:26:50.058Z,12.20
2018-06-15T23:29:19.260Z,11.93
2018-06-15T23:31:48.453Z,10.60
2018-06-15T23:34:17.635Z,11.70
2018-06-15T23:36:46.896Z,9.77
2018-06-15T23:39:16.921Z,12.73
2018-06-15T23:41:46.109Z,15.10
2018-06-15T23:44:15.302Z,11.30
2018-06-15T23:46:44.509Z,8.40
2018-06-15T23:49:13.651Z,10.80
2018-06-15T23:51:42.856Z,12.23
2018-06-15T23:54:12.110Z,13.60
2018-06-15T23:56:41.305Z,11.57
2018-06-15T23:59:10.815Z,11.70
